Holt, Minnesota
Current Conditions -  °F | °C
As of 11:55 PM on Tuesday 21 Oct 2014 (Local Time) from KTVF Reporting Station
Clear Clear  
Wind Chill: 52°   Ceiling: Unl
Heat Index: 52°   Visibility: 10mi
Dew Point: 39°   Wind: 14mph
Humidity: 62%   Direction: 150°SSE
Pressure: 29.92"   Gusts: 24mph
Location:  48.2765°N, 96.2134°W
Report Text: KTVF 220455Z AUTO 15012G21KT 10SM CLR 11/04 A2992 RMK AO1
Loading
Personal Weather Stations






























Interactive Weather Map
Tropical Storm Tracking
New forecast layout! Learn more

10-Day Weather Forecast

Advertisements
Track Severe Weather on mobile